sensor_id;sensor_type;location;lat;lon;timestamp;temperature;humidity
67868;SHT31;54672;46.096;14.470;2022-07-19T00:01:39;17.67;66.68
67868;SHT31;54672;46.096;14.470;2022-07-19T00:04:05;17.64;67.34
67868;SHT31;54672;46.096;14.470;2022-07-19T00:06:30;17.55;67.91
67868;SHT31;54672;46.096;14.470;2022-07-19T00:08:57;17.44;68.39
67868;SHT31;54672;46.096;14.470;2022-07-19T00:11:22;17.43;68.32
67868;SHT31;54672;46.096;14.470;2022-07-19T00:13:47;17.38;69.29
67868;SHT31;54672;46.096;14.470;2022-07-19T00:16:13;17.31;69.89
67868;SHT31;54672;46.096;14.470;2022-07-19T00:18:40;17.26;69.70
67868;SHT31;54672;46.096;14.470;2022-07-19T00:21:05;17.20;69.92
67868;SHT31;54672;46.096;14.470;2022-07-19T00:23:30;17.24;70.30
67868;SHT31;54672;46.096;14.470;2022-07-19T00:25:56;17.17;70.58
67868;SHT31;54672;46.096;14.470;2022-07-19T00:28:21;17.13;70.67
67868;SHT31;54672;46.096;14.470;2022-07-19T00:30:47;17.14;70.94
67868;SHT31;54672;46.096;14.470;2022-07-19T00:33:12;17.19;70.79
67868;SHT31;54672;46.096;14.470;2022-07-19T00:35:38;17.19;70.97
67868;SHT31;54672;46.096;14.470;2022-07-19T00:38:05;17.20;71.12
67868;SHT31;54672;46.096;14.470;2022-07-19T00:40:31;17.09;71.63
67868;SHT31;54672;46.096;14.470;2022-07-19T00:42:57;16.96;72.26
67868;SHT31;54672;46.096;14.470;2022-07-19T00:45:22;16.89;72.67
67868;SHT31;54672;46.096;14.470;2022-07-19T00:47:48;16.82;73.17
67868;SHT31;54672;46.096;14.470;2022-07-19T00:50:13;16.80;73.19
67868;SHT31;54672;46.096;14.470;2022-07-19T00:52:40;16.76;73.05
67868;SHT31;54672;46.096;14.470;2022-07-19T00:55:08;16.73;73.14
67868;SHT31;54672;46.096;14.470;2022-07-19T00:57:33;16.65;72.79
67868;SHT31;54672;46.096;14.470;2022-07-19T01:00:00;16.63;73.40
67868;SHT31;54672;46.096;14.470;2022-07-19T01:02:26;16.61;73.00
67868;SHT31;54672;46.096;14.470;2022-07-19T01:04:54;16.62;73.25
67868;SHT31;54672;46.096;14.470;2022-07-19T01:07:19;16.62;73.12
67868;SHT31;54672;46.096;14.470;2022-07-19T01:09:45;16.66;73.03
67868;SHT31;54672;46.096;14.470;2022-07-19T01:12:10;16.72;73.26
67868;SHT31;54672;46.096;14.470;2022-07-19T01:14:36;16.76;72.48
67868;SHT31;54672;46.096;14.470;2022-07-19T01:17:03;16.77;72.08
67868;SHT31;54672;46.096;14.470;2022-07-19T01:19:28;16.80;73.20
67868;SHT31;54672;46.096;14.470;2022-07-19T01:21:53;16.92;73.17
67868;SHT31;54672;46.096;14.470;2022-07-19T01:24:19;16.83;73.58
67868;SHT31;54672;46.096;14.470;2022-07-19T01:26:44;16.75;73.90
67868;SHT31;54672;46.096;14.470;2022-07-19T01:29:15;16.63;74.44
67868;SHT31;54672;46.096;14.470;2022-07-19T01:31:41;16.52;74.95
67868;SHT31;54672;46.096;14.470;2022-07-19T01:34:06;16.52;74.93
67868;SHT31;54672;46.096;14.470;2022-07-19T01:36:32;16.41;75.61
67868;SHT31;54672;46.096;14.470;2022-07-19T01:38:57;16.38;75.40
67868;SHT31;54672;46.096;14.470;2022-07-19T01:41:22;16.34;75.51
67868;SHT31;54672;46.096;14.470;2022-07-19T01:43:48;16.31;75.64
67868;SHT31;54672;46.096;14.470;2022-07-19T01:46:13;16.28;75.93
67868;SHT31;54672;46.096;14.470;2022-07-19T01:48:39;16.25;75.71
67868;SHT31;54672;46.096;14.470;2022-07-19T01:51:04;16.20;75.66
67868;SHT31;54672;46.096;14.470;2022-07-19T01:53:30;16.18;76.27
67868;SHT31;54672;46.096;14.470;2022-07-19T01:55:55;16.20;76.11
67868;SHT31;54672;46.096;14.470;2022-07-19T01:58:21;16.31;76.36
67868;SHT31;54672;46.096;14.470;2022-07-19T02:00:46;16.32;76.39
67868;SHT31;54672;46.096;14.470;2022-07-19T02:03:12;16.22;76.66
67868;SHT31;54672;46.096;14.470;2022-07-19T02:05:37;16.17;76.85
67868;SHT31;54672;46.096;14.470;2022-07-19T02:08:03;16.10;76.96
67868;SHT31;54672;46.096;14.470;2022-07-19T02:10:29;16.01;77.40
67868;SHT31;54672;46.096;14.470;2022-07-19T02:12:54;16.01;77.66
67868;SHT31;54672;46.096;14.470;2022-07-19T02:15:20;16.00;77.58
67868;SHT31;54672;46.096;14.470;2022-07-19T02:17:45;15.96;78.01
67868;SHT31;54672;46.096;14.470;2022-07-19T02:20:11;15.90;78.67
67868;SHT31;54672;46.096;14.470;2022-07-19T02:22:38;15.80;78.90
67868;SHT31;54672;46.096;14.470;2022-07-19T02:25:03;15.74;79.10
67868;SHT31;54672;46.096;14.470;2022-07-19T02:27:29;15.69;79.37
67868;SHT31;54672;46.096;14.470;2022-07-19T02:29:55;15.66;79.25
67868;SHT31;54672;46.096;14.470;2022-07-19T02:32:20;15.63;79.85
67868;SHT31;54672;46.096;14.470;2022-07-19T02:34:45;15.56;79.98
67868;SHT31;54672;46.096;14.470;2022-07-19T02:37:11;15.49;80.29
67868;SHT31;54672;46.096;14.470;2022-07-19T02:39:36;15.45;80.32
67868;SHT31;54672;46.096;14.470;2022-07-19T02:42:02;15.53;79.78
67868;SHT31;54672;46.096;14.470;2022-07-19T02:44:27;15.55;79.79
67868;SHT31;54672;46.096;14.470;2022-07-19T02:46:53;15.49;79.94
67868;SHT31;54672;46.096;14.470;2022-07-19T02:49:18;15.47;80.16
67868;SHT31;54672;46.096;14.470;2022-07-19T02:51:45;15.46;80.27
67868;SHT31;54672;46.096;14.470;2022-07-19T02:54:11;15.49;79.92
67868;SHT31;54672;46.096;14.470;2022-07-19T02:56:36;15.50;79.78
67868;SHT31;54672;46.096;14.470;2022-07-19T02:59:03;15.47;79.76
67868;SHT31;54672;46.096;14.470;2022-07-19T03:01:29;15.50;79.62
67868;SHT31;54672;46.096;14.470;2022-07-19T03:03:55;15.47;79.64
67868;SHT31;54672;46.096;14.470;2022-07-19T03:06:21;15.55;79.24
67868;SHT31;54672;46.096;14.470;2022-07-19T03:08:46;15.50;79.29
67868;SHT31;54672;46.096;14.470;2022-07-19T03:11:13;15.53;79.07
67868;SHT31;54672;46.096;14.470;2022-07-19T03:13:38;15.53;79.55
67868;SHT31;54672;46.096;14.470;2022-07-19T03:16:04;15.46;79.55
67868;SHT31;54672;46.096;14.470;2022-07-19T03:18:30;15.40;79.72
67868;SHT31;54672;46.096;14.470;2022-07-19T03:20:55;15.42;79.69
67868;SHT31;54672;46.096;14.470;2022-07-19T03:23:25;15.38;79.95
67868;SHT31;54672;46.096;14.470;2022-07-19T03:25:50;15.35;79.97
67868;SHT31;54672;46.096;14.470;2022-07-19T03:28:15;15.35;79.99
67868;SHT31;54672;46.096;14.470;2022-07-19T03:30:41;15.31;80.29
67868;SHT31;54672;46.096;14.470;2022-07-19T03:33:06;15.35;80.68
67868;SHT31;54672;46.096;14.470;2022-07-19T03:35:32;15.38;80.13
67868;SHT31;54672;46.096;14.470;2022-07-19T03:37:57;15.38;80.19
67868;SHT31;54672;46.096;14.470;2022-07-19T03:40:23;15.40;80.42
67868;SHT31;54672;46.096;14.470;2022-07-19T03:42:48;15.42;80.32
67868;SHT31;54672;46.096;14.470;2022-07-19T03:45:13;15.53;80.28
67868;SHT31;54672;46.096;14.470;2022-07-19T03:47:39;15.66;79.42
67868;SHT31;54672;46.096;14.470;2022-07-19T03:50:05;15.90;78.05
67868;SHT31;54672;46.096;14.470;2022-07-19T03:52:31;16.31;76.90
67868;SHT31;54672;46.096;14.470;2022-07-19T03:54:57;16.38;76.15
67868;SHT31;54672;46.096;14.470;2022-07-19T03:57:22;16.87;74.68
67868;SHT31;54672;46.096;14.470;2022-07-19T03:59:48;17.06;73.92
67868;SHT31;54672;46.096;14.470;2022-07-19T04:02:13;17.24;72.85
67868;SHT31;54672;46.096;14.470;2022-07-19T04:04:39;17.06;73.57
67868;SHT31;54672;46.096;14.470;2022-07-19T04:07:04;16.86;74.54
67868;SHT31;54672;46.096;14.470;2022-07-19T04:09:29;17.02;73.85
67868;SHT31;54672;46.096;14.470;2022-07-19T04:11:55;17.54;71.99
67868;SHT31;54672;46.096;14.470;2022-07-19T04:14:20;18.17;70.06
67868;SHT31;54672;46.096;14.470;2022-07-19T04:16:45;18.78;67.81
67868;SHT31;54672;46.096;14.470;2022-07-19T04:19:11;19.67;64.88
67868;SHT31;54672;46.096;14.470;2022-07-19T04:21:36;20.48;61.72
67868;SHT31;54672;46.096;14.470;2022-07-19T04:24:02;21.20;60.37
67868;SHT31;54672;46.096;14.470;2022-07-19T04:26:28;21.85;59.42
67868;SHT31;54672;46.096;14.470;2022-07-19T04:28:53;22.31;56.63
67868;SHT31;54672;46.096;14.470;2022-07-19T04:31:19;22.77;55.44
67868;SHT31;54672;46.096;14.470;2022-07-19T04:33:44;23.04;54.42
67868;SHT31;54672;46.096;14.470;2022-07-19T04:36:09;23.58;53.46
67868;SHT31;54672;46.096;14.470;2022-07-19T04:38:35;24.06;51.55
67868;SHT31;54672;46.096;14.470;2022-07-19T04:41:00;24.46;50.96
67868;SHT31;54672;46.096;14.470;2022-07-19T04:43:26;24.61;50.15
67868;SHT31;54672;46.096;14.470;2022-07-19T04:45:52;24.39;50.88
67868;SHT31;54672;46.096;14.470;2022-07-19T04:48:17;24.64;50.17
67868;SHT31;54672;46.096;14.470;2022-07-19T04:50:43;24.81;49.78
67868;SHT31;54672;46.096;14.470;2022-07-19T04:53:08;25.07;49.45
67868;SHT31;54672;46.096;14.470;2022-07-19T04:55:36;25.14;48.67
67868;SHT31;54672;46.096;14.470;2022-07-19T04:58:01;25.66;48.21
67868;SHT31;54672;46.096;14.470;2022-07-19T05:00:27;25.76;47.77
67868;SHT31;54672;46.096;14.470;2022-07-19T05:02:54;26.34;46.53
67868;SHT31;54672;46.096;14.470;2022-07-19T05:05:20;26.58;46.67
67868;SHT31;54672;46.096;14.470;2022-07-19T05:07:45;26.78;46.17
67868;SHT31;54672;46.096;14.470;2022-07-19T05:10:11;27.16;45.16
67868;SHT31;54672;46.096;14.470;2022-07-19T05:12:37;27.44;43.84
67868;SHT31;54672;46.096;14.470;2022-07-19T05:15:03;28.06;42.52
67868;SHT31;54672;46.096;14.470;2022-07-19T05:17:29;28.15;42.59
67868;SHT31;54672;46.096;14.470;2022-07-19T05:19:55;28.61;41.47
67868;SHT31;54672;46.096;14.470;2022-07-19T05:22:20;28.78;40.88
67868;SHT31;54672;46.096;14.470;2022-07-19T05:24:47;29.10;40.46
67868;SHT31;54672;46.096;14.470;2022-07-19T05:27:12;29.82;39.47
67868;SHT31;54672;46.096;14.470;2022-07-19T05:29:38;29.79;39.16
67868;SHT31;54672;46.096;14.470;2022-07-19T05:32:04;29.61;39.56
67868;SHT31;54672;46.096;14.470;2022-07-19T05:34:29;30.04;38.83
67868;SHT31;54672;46.096;14.470;2022-07-19T05:36:55;29.39;39.73
67868;SHT31;54672;46.096;14.470;2022-07-19T05:39:20;30.04;38.73
67868;SHT31;54672;46.096;14.470;2022-07-19T05:41:46;30.61;37.72
67868;SHT31;54672;46.096;14.470;2022-07-19T05:44:11;30.64;37.73
67868;SHT31;54672;46.096;14.470;2022-07-19T05:46:36;30.99;37.01
67868;SHT31;54672;46.096;14.470;2022-07-19T05:49:09;31.67;36.33
67868;SHT31;54672;46.096;14.470;2022-07-19T05:51:35;30.51;38.35
67868;SHT31;54672;46.096;14.470;2022-07-19T05:54:01;30.43;38.83
67868;SHT31;54672;46.096;14.470;2022-07-19T05:56:27;31.16;37.07
67868;SHT31;54672;46.096;14.470;2022-07-19T05:58:53;31.13;37.43
67868;SHT31;54672;46.096;14.470;2022-07-19T06:01:19;31.25;37.20
67868;SHT31;54672;46.096;14.470;2022-07-19T06:03:49;30.92;37.73
67868;SHT31;54672;46.096;14.470;2022-07-19T06:06:16;30.30;38.87
67868;SHT31;54672;46.096;14.470;2022-07-19T06:08:42;30.49;38.62
67868;SHT31;54672;46.096;14.470;2022-07-19T06:11:08;30.96;38.18
67868;SHT31;54672;46.096;14.470;2022-07-19T06:13:34;31.18;37.92
67868;SHT31;54672;46.096;14.470;2022-07-19T06:15:59;30.30;38.56
67868;SHT31;54672;46.096;14.470;2022-07-19T06:18:25;29.85;39.35
67868;SHT31;54672;46.096;14.470;2022-07-19T06:20:50;30.10;38.47
67868;SHT31;54672;46.096;14.470;2022-07-19T06:23:16;30.54;38.07
67868;SHT31;54672;46.096;14.470;2022-07-19T06:25:41;31.02;37.53
67868;SHT31;54672;46.096;14.470;2022-07-19T06:28:06;31.97;36.07
67868;SHT31;54672;46.096;14.470;2022-07-19T06:30:32;31.80;36.15
67868;SHT31;54672;46.096;14.470;2022-07-19T06:32:57;32.13;35.80
67868;SHT31;54672;46.096;14.470;2022-07-19T06:35:23;32.39;35.11
67868;SHT31;54672;46.096;14.470;2022-07-19T06:37:49;32.14;35.05
67868;SHT31;54672;46.096;14.470;2022-07-19T06:40:15;31.70;36.10
67868;SHT31;54672;46.096;14.470;2022-07-19T06:42:40;32.34;35.16
67868;SHT31;54672;46.096;14.470;2022-07-19T06:45:06;32.62;34.95
67868;SHT31;54672;46.096;14.470;2022-07-19T06:47:31;32.03;35.40
67868;SHT31;54672;46.096;14.470;2022-07-19T06:50:00;32.20;34.89
67868;SHT31;54672;46.096;14.470;2022-07-19T06:52:26;32.58;35.00
67868;SHT31;54672;46.096;14.470;2022-07-19T06:54:51;33.02;34.10
67868;SHT31;54672;46.096;14.470;2022-07-19T06:57:17;32.76;34.10
67868;SHT31;54672;46.096;14.470;2022-07-19T06:59:43;32.51;34.60
67868;SHT31;54672;46.096;14.470;2022-07-19T07:02:08;33.14;33.50
67868;SHT31;54672;46.096;14.470;2022-07-19T07:04:34;33.29;34.10
67868;SHT31;54672;46.096;14.470;2022-07-19T07:07:00;29.95;37.79
67868;SHT31;54672;46.096;14.470;2022-07-19T07:09:25;30.09;38.13
67868;SHT31;54672;46.096;14.470;2022-07-19T07:11:50;29.61;39.81
67868;SHT31;54672;46.096;14.470;2022-07-19T07:14:16;31.88;35.82
67868;SHT31;54672;46.096;14.470;2022-07-19T07:16:41;32.35;35.12
67868;SHT31;54672;46.096;14.470;2022-07-19T07:19:07;33.04;34.22
67868;SHT31;54672;46.096;14.470;2022-07-19T07:21:32;33.39;33.24
67868;SHT31;54672;46.096;14.470;2022-07-19T07:24:04;33.53;33.48
67868;SHT31;54672;46.096;14.470;2022-07-19T07:26:30;33.70;32.92
67868;SHT31;54672;46.096;14.470;2022-07-19T07:28:56;32.07;34.97
67868;SHT31;54672;46.096;14.470;2022-07-19T07:31:21;31.30;36.04
67868;SHT31;54672;46.096;14.470;2022-07-19T07:33:46;32.11;35.00
67868;SHT31;54672;46.096;14.470;2022-07-19T07:36:12;32.58;34.83
67868;SHT31;54672;46.096;14.470;2022-07-19T07:38:37;32.32;35.20
67868;SHT31;54672;46.096;14.470;2022-07-19T07:41:04;30.54;36.90
67868;SHT31;54672;46.096;14.470;2022-07-19T07:43:29;31.43;36.62
67868;SHT31;54672;46.096;14.470;2022-07-19T07:45:55;31.95;35.88
67868;SHT31;54672;46.096;14.470;2022-07-19T07:48:20;30.33;38.32
67868;SHT31;54672;46.096;14.470;2022-07-19T07:50:45;31.49;36.17
67868;SHT31;54672;46.096;14.470;2022-07-19T07:53:11;32.27;34.86
67868;SHT31;54672;46.096;14.470;2022-07-19T07:55:36;32.82;33.94
67868;SHT31;54672;46.096;14.470;2022-07-19T07:58:08;32.99;34.13
67868;SHT31;54672;46.096;14.470;2022-07-19T08:00:35;32.78;33.91
67868;SHT31;54672;46.096;14.470;2022-07-19T08:03:00;33.29;33.76
67868;SHT31;54672;46.096;14.470;2022-07-19T08:05:26;33.75;32.71
67868;SHT31;54672;46.096;14.470;2022-07-19T08:07:52;34.09;32.31
67868;SHT31;54672;46.096;14.470;2022-07-19T08:10:17;33.94;33.00
67868;SHT31;54672;46.096;14.470;2022-07-19T08:12:43;33.91;31.75
67868;SHT31;54672;46.096;14.470;2022-07-19T08:15:08;33.14;32.14
67868;SHT31;54672;46.096;14.470;2022-07-19T08:17:34;31.21;34.51
67868;SHT31;54672;46.096;14.470;2022-07-19T08:19:59;31.54;34.97
67868;SHT31;54672;46.096;14.470;2022-07-19T08:22:25;32.71;34.48
67868;SHT31;54672;46.096;14.470;2022-07-19T08:24:50;33.17;33.05
67868;SHT31;54672;46.096;14.470;2022-07-19T08:27:16;33.17;32.73
67868;SHT31;54672;46.096;14.470;2022-07-19T08:29:41;32.76;33.27
67868;SHT31;54672;46.096;14.470;2022-07-19T08:32:06;32.56;32.82
67868;SHT31;54672;46.096;14.470;2022-07-19T08:34:32;31.97;33.78
67868;SHT31;54672;46.096;14.470;2022-07-19T08:36:57;32.18;31.81
67868;SHT31;54672;46.096;14.470;2022-07-19T08:39:25;31.91;32.51
67868;SHT31;54672;46.096;14.470;2022-07-19T08:41:50;31.46;31.82
67868;SHT31;54672;46.096;14.470;2022-07-19T08:44:16;31.25;33.53
67868;SHT31;54672;46.096;14.470;2022-07-19T08:46:43;31.12;31.84
67868;SHT31;54672;46.096;14.470;2022-07-19T08:49:09;31.43;31.66
67868;SHT31;54672;46.096;14.470;2022-07-19T08:51:35;31.54;30.72
67868;SHT31;54672;46.096;14.470;2022-07-19T08:54:01;31.64;31.62
67868;SHT31;54672;46.096;14.470;2022-07-19T08:56:27;31.76;31.20
67868;SHT31;54672;46.096;14.470;2022-07-19T08:59:13;32.43;30.95
67868;SHT31;54672;46.096;14.470;2022-07-19T09:01:39;32.65;30.88
67868;SHT31;54672;46.096;14.470;2022-07-19T09:04:09;32.28;30.08
67868;SHT31;54672;46.096;14.470;2022-07-19T09:09:08;32.34;30.94
67868;SHT31;54672;46.096;14.470;2022-07-19T09:11:36;32.49;29.78
67868;SHT31;54672;46.096;14.470;2022-07-19T09:14:08;32.10;31.30
67868;SHT31;54672;46.096;14.470;2022-07-19T09:16:57;32.76;30.48
67868;SHT31;54672;46.096;14.470;2022-07-19T09:19:26;33.55;29.71
67868;SHT31;54672;46.096;14.470;2022-07-19T09:21:52;33.74;28.27
67868;SHT31;54672;46.096;14.470;2022-07-19T09:24:19;33.31;27.74
67868;SHT31;54672;46.096;14.470;2022-07-19T09:27:21;32.04;29.69
67868;SHT31;54672;46.096;14.470;2022-07-19T09:29:55;32.18;30.10
67868;SHT31;54672;46.096;14.470;2022-07-19T09:32:22;33.02;28.85
67868;SHT31;54672;46.096;14.470;2022-07-19T09:37:18;33.26;28.81
67868;SHT31;54672;46.096;14.470;2022-07-19T09:39:46;32.46;29.98
67868;SHT31;54672;46.096;14.470;2022-07-19T09:42:18;31.39;30.66
67868;SHT31;54672;46.096;14.470;2022-07-19T09:44:44;30.43;32.63
67868;SHT31;54672;46.096;14.470;2022-07-19T09:47:10;29.95;32.92
67868;SHT31;54672;46.096;14.470;2022-07-19T09:49:35;29.80;33.50
67868;SHT31;54672;46.096;14.470;2022-07-19T09:52:01;29.69;34.21
67868;SHT31;54672;46.096;14.470;2022-07-19T09:54:28;29.79;34.13
67868;SHT31;54672;46.096;14.470;2022-07-19T09:56:56;29.79;33.00
67868;SHT31;54672;46.096;14.470;2022-07-19T09:59:23;29.83;33.96
67868;SHT31;54672;46.096;14.470;2022-07-19T10:01:51;29.51;34.68
67868;SHT31;54672;46.096;14.470;2022-07-19T10:04:22;29.52;34.39
67868;SHT31;54672;46.096;14.470;2022-07-19T10:06:50;29.63;35.02
67868;SHT31;54672;46.096;14.470;2022-07-19T10:09:17;29.79;34.67
67868;SHT31;54672;46.096;14.470;2022-07-19T10:11:43;29.73;34.77
67868;SHT31;54672;46.096;14.470;2022-07-19T10:14:10;29.87;35.12
67868;SHT31;54672;46.096;14.470;2022-07-19T10:21:41;29.75;34.44
67868;SHT31;54672;46.096;14.470;2022-07-19T10:24:07;29.72;34.85
67868;SHT31;54672;46.096;14.470;2022-07-19T10:26:41;29.93;34.22
67868;SHT31;54672;46.096;14.470;2022-07-19T10:29:15;30.18;34.15
67868;SHT31;54672;46.096;14.470;2022-07-19T10:31:42;30.28;34.78
67868;SHT31;54672;46.096;14.470;2022-07-19T10:34:22;30.41;34.58
67868;SHT31;54672;46.096;14.470;2022-07-19T10:36:50;30.13;35.77
67868;SHT31;54672;46.096;14.470;2022-07-19T10:39:30;30.16;36.51
67868;SHT31;54672;46.096;14.470;2022-07-19T10:42:19;30.44;36.30
67868;SHT31;54672;46.096;14.470;2022-07-19T10:47:20;30.55;34.49
67868;SHT31;54672;46.096;14.470;2022-07-19T10:49:46;30.41;33.76
67868;SHT31;54672;46.096;14.470;2022-07-19T11:00:26;30.96;35.50
67868;SHT31;54672;46.096;14.470;2022-07-19T11:03:22;31.26;34.52
67868;SHT31;54672;46.096;14.470;2022-07-19T11:05:46;31.40;33.72
67868;SHT31;54672;46.096;14.470;2022-07-19T11:08:12;31.37;33.16
67868;SHT31;54672;46.096;14.470;2022-07-19T11:10:37;31.33;31.91
67868;SHT31;54672;46.096;14.470;2022-07-19T11:13:03;31.33;31.66
67868;SHT31;54672;46.096;14.470;2022-07-19T11:15:28;31.12;32.04
67868;SHT31;54672;46.096;14.470;2022-07-19T11:18:04;30.91;31.64
67868;SHT31;54672;46.096;14.470;2022-07-19T11:20:34;31.06;31.26
67868;SHT31;54672;46.096;14.470;2022-07-19T11:23:02;31.08;30.95
67868;SHT31;54672;46.096;14.470;2022-07-19T11:25:36;31.11;30.35
67868;SHT31;54672;46.096;14.470;2022-07-19T11:28:03;31.02;30.45
67868;SHT31;54672;46.096;14.470;2022-07-19T11:30:31;30.84;30.62
67868;SHT31;54672;46.096;14.470;2022-07-19T11:33:02;31.15;30.72
67868;SHT31;54672;46.096;14.470;2022-07-19T11:35:29;31.43;30.87
67868;SHT31;54672;46.096;14.470;2022-07-19T11:37:57;31.54;29.75
67868;SHT31;54672;46.096;14.470;2022-07-19T11:40:24;31.62;28.72
67868;SHT31;54672;46.096;14.470;2022-07-19T11:42:50;31.59;29.00
67868;SHT31;54672;46.096;14.470;2022-07-19T11:45:21;31.69;29.54
67868;SHT31;54672;46.096;14.470;2022-07-19T11:47:52;31.63;29.18
67868;SHT31;54672;46.096;14.470;2022-07-19T11:50:21;30.92;29.60
67868;SHT31;54672;46.096;14.470;2022-07-19T11:52:53;30.61;29.73
67868;SHT31;54672;46.096;14.470;2022-07-19T11:55:27;30.69;29.07
67868;SHT31;54672;46.096;14.470;2022-07-19T11:57:54;30.88;29.15
67868;SHT31;54672;46.096;14.470;2022-07-19T12:00:20;31.09;28.96
67868;SHT31;54672;46.096;14.470;2022-07-19T12:03:00;31.21;29.00
67868;SHT31;54672;46.096;14.470;2022-07-19T12:05:37;31.02;29.00
67868;SHT31;54672;46.096;14.470;2022-07-19T12:08:06;31.02;29.19
67868;SHT31;54672;46.096;14.470;2022-07-19T12:13:04;31.22;29.27
67868;SHT31;54672;46.096;14.470;2022-07-19T12:18:15;31.05;29.58
67868;SHT31;54672;46.096;14.470;2022-07-19T12:20:43;30.94;29.70
67868;SHT31;54672;46.096;14.470;2022-07-19T12:23:15;30.69;30.39
67868;SHT31;54672;46.096;14.470;2022-07-19T12:25:42;30.86;29.42
67868;SHT31;54672;46.096;14.470;2022-07-19T12:28:07;30.94;29.70
67868;SHT31;54672;46.096;14.470;2022-07-19T12:30:32;30.84;29.99
67868;SHT31;54672;46.096;14.470;2022-07-19T12:33:12;31.13;29.36
67868;SHT31;54672;46.096;14.470;2022-07-19T12:35:55;31.19;28.85
67868;SHT31;54672;46.096;14.470;2022-07-19T12:38:30;31.32;29.43
67868;SHT31;54672;46.096;14.470;2022-07-19T12:41:05;31.46;28.95
67868;SHT31;54672;46.096;14.470;2022-07-19T12:43:31;31.40;28.96
67868;SHT31;54672;46.096;14.470;2022-07-19T12:45:59;31.34;29.22
67868;SHT31;54672;46.096;14.470;2022-07-19T12:48:27;31.49;29.17
67868;SHT31;54672;46.096;14.470;2022-07-19T12:50:52;31.34;29.84
67868;SHT31;54672;46.096;14.470;2022-07-19T12:53:18;31.44;29.60
67868;SHT31;54672;46.096;14.470;2022-07-19T12:55:44;31.53;28.82
67868;SHT31;54672;46.096;14.470;2022-07-19T12:58:10;31.44;29.43
67868;SHT31;54672;46.096;14.470;2022-07-19T13:00:37;31.51;28.64
67868;SHT31;54672;46.096;14.470;2022-07-19T13:03:03;31.46;29.32
67868;SHT31;54672;46.096;14.470;2022-07-19T13:05:30;31.66;28.49
67868;SHT31;54672;46.096;14.470;2022-07-19T13:07:56;31.22;29.61
67868;SHT31;54672;46.096;14.470;2022-07-19T13:10:23;31.33;28.71
67868;SHT31;54672;46.096;14.470;2022-07-19T13:12:48;31.49;29.18
67868;SHT31;54672;46.096;14.470;2022-07-19T13:15:14;31.44;28.82
67868;SHT31;54672;46.096;14.470;2022-07-19T13:17:40;31.53;28.70
67868;SHT31;54672;46.096;14.470;2022-07-19T13:20:06;31.54;28.90
67868;SHT31;54672;46.096;14.470;2022-07-19T13:22:33;31.67;28.53
67868;SHT31;54672;46.096;14.470;2022-07-19T13:24:59;31.77;29.03
67868;SHT31;54672;46.096;14.470;2022-07-19T13:27:24;31.81;29.36
67868;SHT31;54672;46.096;14.470;2022-07-19T13:29:50;31.98;28.99
67868;SHT31;54672;46.096;14.470;2022-07-19T13:32:15;32.00;28.65
67868;SHT31;54672;46.096;14.470;2022-07-19T13:34:40;31.94;28.59
67868;SHT31;54672;46.096;14.470;2022-07-19T13:37:06;31.51;28.97
67868;SHT31;54672;46.096;14.470;2022-07-19T13:39:32;31.64;29.95
67868;SHT31;54672;46.096;14.470;2022-07-19T13:41:58;31.88;29.65
67868;SHT31;54672;46.096;14.470;2022-07-19T13:44:24;31.97;29.56
67868;SHT31;54672;46.096;14.470;2022-07-19T13:46:49;31.69;29.06
67868;SHT31;54672;46.096;14.470;2022-07-19T13:49:14;31.66;28.98
67868;SHT31;54672;46.096;14.470;2022-07-19T13:51:40;31.73;29.04
67868;SHT31;54672;46.096;14.470;2022-07-19T13:54:05;31.51;29.22
67868;SHT31;54672;46.096;14.470;2022-07-19T13:56:31;31.63;29.32
67868;SHT31;54672;46.096;14.470;2022-07-19T13:58:56;31.81;29.49
67868;SHT31;54672;46.096;14.470;2022-07-19T14:01:22;31.91;29.64
67868;SHT31;54672;46.096;14.470;2022-07-19T14:03:47;32.00;29.91
67868;SHT31;54672;46.096;14.470;2022-07-19T14:06:14;32.05;30.07
67868;SHT31;54672;46.096;14.470;2022-07-19T14:08:40;32.17;30.00
67868;SHT31;54672;46.096;14.470;2022-07-19T14:11:08;32.15;30.22
67868;SHT31;54672;46.096;14.470;2022-07-19T14:13:38;31.90;29.30
67868;SHT31;54672;46.096;14.470;2022-07-19T14:16:04;31.88;29.11
67868;SHT31;54672;46.096;14.470;2022-07-19T14:18:32;31.84;28.90
67868;SHT31;54672;46.096;14.470;2022-07-19T14:20:58;31.80;29.75
67868;SHT31;54672;46.096;14.470;2022-07-19T14:23:27;31.83;28.97
67868;SHT31;54672;46.096;14.470;2022-07-19T14:25:52;31.78;29.75
67868;SHT31;54672;46.096;14.470;2022-07-19T14:28:18;31.77;30.08
67868;SHT31;54672;46.096;14.470;2022-07-19T14:30:44;31.63;29.80
67868;SHT31;54672;46.096;14.470;2022-07-19T14:33:10;31.73;29.41
67868;SHT31;54672;46.096;14.470;2022-07-19T14:35:38;31.56;29.65
67868;SHT31;54672;46.096;14.470;2022-07-19T14:38:04;31.33;29.43
67868;SHT31;54672;46.096;14.470;2022-07-19T14:40:30;31.49;29.89
67868;SHT31;54672;46.096;14.470;2022-07-19T14:42:55;31.50;29.24
67868;SHT31;54672;46.096;14.470;2022-07-19T14:45:24;31.53;30.37
67868;SHT31;54672;46.096;14.470;2022-07-19T14:48:09;31.42;29.78
67868;SHT31;54672;46.096;14.470;2022-07-19T14:50:41;31.46;29.59
67868;SHT31;54672;46.096;14.470;2022-07-19T14:53:07;31.44;30.05
67868;SHT31;54672;46.096;14.470;2022-07-19T14:55:34;31.49;30.29
67868;SHT31;54672;46.096;14.470;2022-07-19T14:57:59;31.42;30.54
67868;SHT31;54672;46.096;14.470;2022-07-19T15:00:25;31.56;30.65
67868;SHT31;54672;46.096;14.470;2022-07-19T15:02:50;31.54;30.26
67868;SHT31;54672;46.096;14.470;2022-07-19T15:05:15;31.62;30.93
67868;SHT31;54672;46.096;14.470;2022-07-19T15:07:41;31.59;30.35
67868;SHT31;54672;46.096;14.470;2022-07-19T15:10:06;31.50;30.38
67868;SHT31;54672;46.096;14.470;2022-07-19T15:12:33;31.59;30.38
67868;SHT31;54672;46.096;14.470;2022-07-19T15:14:58;31.47;30.19
67868;SHT31;54672;46.096;14.470;2022-07-19T15:17:24;31.36;30.56
67868;SHT31;54672;46.096;14.470;2022-07-19T15:19:49;31.39;30.75
67868;SHT31;54672;46.096;14.470;2022-07-19T15:22:17;31.42;30.93
67868;SHT31;54672;46.096;14.470;2022-07-19T15:24:42;31.39;31.87
67868;SHT31;54672;46.096;14.470;2022-07-19T15:27:08;31.43;31.32
67868;SHT31;54672;46.096;14.470;2022-07-19T15:29:33;31.39;31.31
67868;SHT31;54672;46.096;14.470;2022-07-19T15:31:58;31.39;31.23
67868;SHT31;54672;46.096;14.470;2022-07-19T15:34:24;31.29;30.99
67868;SHT31;54672;46.096;14.470;2022-07-19T15:36:49;31.34;31.57
67868;SHT31;54672;46.096;14.470;2022-07-19T15:39:14;31.36;31.11